<?xml version="1.0" encoding="UTF-8" standalone="no" ?>
<gpx xmlns="http://www.topografix.com/GPX/1/1" xmlns:xsi="http://www.w3.org/2001/XMLSchema-instance" xsi:schemaLocation="http://www.topografix.com/GPX/1/1 http://www.topografix.com/GPX/1/1/gpx.xsd" version="1.1" creator="VisuGPX - https://www.visugpx.com">
  <metadata>
    <name>Le Plat du moulin ou chemin de Fica</name>
  </metadata>
  <wpt lat="41.81117" lon="8.77529">
    <ele>3</ele>
    <name><![CDATA[Parking de la Plage de Mare e Sole]]></name>
  </wpt>
  <wpt lat="41.81178" lon="8.78013">
    <ele>20</ele>
    <name><![CDATA[Bifurcation]]></name>
  </wpt>
  <wpt lat="41.81236" lon="8.78337">
    <ele>40</ele>
    <name><![CDATA[Ruines de Fica]]></name>
  </wpt>
  <wpt lat="41.81215" lon="8.78266">
    <ele>34</ele>
    <name><![CDATA[Bifurcation à gauche]]></name>
  </wpt>
  <wpt lat="41.81044" lon="8.78361">
    <ele>42</ele>
    <name><![CDATA[Sentier plus large à gauche]]></name>
  </wpt>
  <wpt lat="41.80546" lon="8.77536">
    <ele>37</ele>
    <name><![CDATA[restez sur votre gauche]]></name>
  </wpt>
  <wpt lat="41.80484" lon="8.77292">
    <ele>39</ele>
    <name><![CDATA[Tout droit]]></name>
  </wpt>
  <wpt lat="41.81109" lon="8.77522">
    <ele>2</ele>
    <name><![CDATA[Parking de la Plage de Mare e Sole]]></name>
  </wpt>
  <trk>
    <name><![CDATA[Le Plat du moulin ou chemin de Fica]]></name>
    <trkseg>
      <trkpt lat="41.81117" lon="8.77529">
        <ele>3</ele>
        <time>2017-07-23T07:13:45+02:00</time>
      </trkpt>
      <trkpt lat="41.81107" lon="8.77541">
        <ele>3</ele>
        <time>2021-07-05T18:40:33+02:00</time>
      </trkpt>
      <trkpt lat="41.81103" lon="8.77554">
        <ele>4</ele>
        <time>2021-07-05T18:40:38+02:00</time>
      </trkpt>
      <trkpt lat="41.81113" lon="8.7756">
        <ele>4</ele>
        <time>2017-07-23T07:14:35+02:00</time>
      </trkpt>
      <trkpt lat="41.81112" lon="8.77592">
        <ele>6</ele>
        <time>2017-07-23T07:16:16+02:00</time>
      </trkpt>
      <trkpt lat="41.81109" lon="8.77622">
        <ele>8</ele>
        <time>2017-07-23T07:16:39+02:00</time>
      </trkpt>
      <trkpt lat="41.8111" lon="8.77654">
        <ele>9</ele>
        <time>2017-07-23T07:17:14+02:00</time>
      </trkpt>
      <trkpt lat="41.81104" lon="8.77686">
        <ele>11</ele>
        <time>2017-07-23T07:17:45+02:00</time>
      </trkpt>
      <trkpt lat="41.81097" lon="8.77717">
        <ele>12</ele>
        <time>2017-07-23T07:18:15+02:00</time>
      </trkpt>
      <trkpt lat="41.81088" lon="8.77749">
        <ele>14</ele>
        <time>2017-07-23T07:18:41+02:00</time>
      </trkpt>
      <trkpt lat="41.81084" lon="8.7778">
        <ele>14</ele>
        <time>2017-07-23T07:19:14+02:00</time>
      </trkpt>
      <trkpt lat="41.81078" lon="8.77809">
        <ele>15</ele>
        <time>2017-07-23T07:19:35+02:00</time>
      </trkpt>
      <trkpt lat="41.81081" lon="8.77842">
        <ele>15</ele>
        <time>2017-07-23T07:20:02+02:00</time>
      </trkpt>
      <trkpt lat="41.81085" lon="8.77872">
        <ele>16</ele>
        <time>2017-07-23T07:20:29+02:00</time>
      </trkpt>
      <trkpt lat="41.81095" lon="8.77901">
        <ele>17</ele>
        <time>2017-07-23T07:21:07+02:00</time>
      </trkpt>
      <trkpt lat="41.81109" lon="8.77928">
        <ele>17</ele>
        <time>2017-07-23T07:25:28+02:00</time>
      </trkpt>
      <trkpt lat="41.81126" lon="8.77949">
        <ele>18</ele>
        <time>2017-07-23T07:25:45+02:00</time>
      </trkpt>
      <trkpt lat="41.81144" lon="8.7797">
        <ele>18</ele>
        <time>2017-07-23T07:26:18+02:00</time>
      </trkpt>
      <trkpt lat="41.81161" lon="8.77993">
        <ele>20</ele>
        <time>2017-07-23T07:26:56+02:00</time>
      </trkpt>
      <trkpt lat="41.81178" lon="8.78013">
        <ele>20</ele>
        <time>2017-07-23T07:27:23+02:00</time>
      </trkpt>
      <trkpt lat="41.81192" lon="8.78038">
        <ele>21</ele>
        <time>2017-07-23T07:27:49+02:00</time>
      </trkpt>
      <trkpt lat="41.8121" lon="8.78057">
        <ele>22</ele>
        <time>2017-07-23T07:28:14+02:00</time>
      </trkpt>
      <trkpt lat="41.81231" lon="8.78072">
        <ele>24</ele>
        <time>2017-07-23T07:29:17+02:00</time>
      </trkpt>
      <trkpt lat="41.8125" lon="8.7809">
        <ele>25</ele>
        <time>2017-07-23T07:29:31+02:00</time>
      </trkpt>
      <trkpt lat="41.81271" lon="8.78105">
        <ele>27</ele>
        <time>2017-07-23T07:30:33+02:00</time>
      </trkpt>
      <trkpt lat="41.81292" lon="8.78119">
        <ele>29</ele>
        <time>2017-07-23T07:30:51+02:00</time>
      </trkpt>
      <trkpt lat="41.81309" lon="8.78141">
        <ele>30</ele>
        <time>2017-07-23T07:31:34+02:00</time>
      </trkpt>
      <trkpt lat="41.81332" lon="8.78161">
        <ele>32</ele>
        <time>2017-07-23T07:32:45+02:00</time>
      </trkpt>
      <trkpt lat="41.81348" lon="8.78181">
        <ele>33</ele>
        <time>2017-07-23T07:33:04+02:00</time>
      </trkpt>
      <trkpt lat="41.8137" lon="8.782">
        <ele>35</ele>
        <time>2017-07-23T07:33:45+02:00</time>
      </trkpt>
      <trkpt lat="41.81386" lon="8.7822">
        <ele>36</ele>
        <time>2017-07-23T07:34:22+02:00</time>
      </trkpt>
      <trkpt lat="41.81405" lon="8.78245">
        <ele>37</ele>
        <time>2017-07-23T07:34:40+02:00</time>
      </trkpt>
      <trkpt lat="41.81418" lon="8.78268">
        <ele>39</ele>
        <time>2017-07-23T07:35:16+02:00</time>
      </trkpt>
      <trkpt lat="41.81434" lon="8.78289">
        <ele>42</ele>
        <time>2017-07-23T07:36:03+02:00</time>
      </trkpt>
      <trkpt lat="41.81426" lon="8.78318">
        <ele>43</ele>
        <time>2017-07-23T07:36:39+02:00</time>
      </trkpt>
      <trkpt lat="41.81417" lon="8.78333">
        <ele>43</ele>
        <time>2021-07-05T18:43:23+02:00</time>
      </trkpt>
      <trkpt lat="41.81406" lon="8.78331">
        <ele>43</ele>
        <time>2017-07-23T07:37:35+02:00</time>
      </trkpt>
      <trkpt lat="41.81392" lon="8.78324">
        <ele>42</ele>
        <time>2021-07-05T18:43:33+02:00</time>
      </trkpt>
      <trkpt lat="41.81376" lon="8.78316">
        <ele>41</ele>
        <time>2017-07-23T07:38:07+02:00</time>
      </trkpt>
      <trkpt lat="41.81355" lon="8.78317">
        <ele>41</ele>
        <time>2017-07-23T07:38:31+02:00</time>
      </trkpt>
      <trkpt lat="41.81339" lon="8.7833">
        <ele>43</ele>
        <time>2017-07-23T07:38:58+02:00</time>
      </trkpt>
      <trkpt lat="41.8131" lon="8.78325">
        <ele>42</ele>
        <time>2017-07-23T07:39:31+02:00</time>
      </trkpt>
      <trkpt lat="41.81288" lon="8.78334">
        <ele>42</ele>
        <time>2017-07-23T07:40:10+02:00</time>
      </trkpt>
      <trkpt lat="41.81268" lon="8.78352">
        <ele>43</ele>
        <time>2017-07-23T07:40:59+02:00</time>
      </trkpt>
      <trkpt lat="41.81252" lon="8.78374">
        <ele>44</ele>
        <time>2017-07-23T07:41:17+02:00</time>
      </trkpt>
      <trkpt lat="41.81245" lon="8.7837">
        <ele>43</ele>
        <time>2017-07-23T07:43:34+02:00</time>
      </trkpt>
      <trkpt lat="41.81236" lon="8.78337">
        <ele>40</ele>
        <time>2017-07-23T07:44:09+02:00</time>
      </trkpt>
      <trkpt lat="41.81228" lon="8.78328">
        <ele>39</ele>
        <time>2017-07-23T07:45:35+02:00</time>
      </trkpt>
      <trkpt lat="41.81223" lon="8.78309">
        <ele>37</ele>
        <time>2017-07-23T07:47:27+02:00</time>
      </trkpt>
      <trkpt lat="41.8122" lon="8.78287">
        <ele>36</ele>
        <time>2021-07-05T18:44:33+02:00</time>
      </trkpt>
      <trkpt lat="41.81215" lon="8.78266">
        <ele>34</ele>
        <time>2017-07-23T07:47:45+02:00</time>
      </trkpt>
      <trkpt lat="41.81199" lon="8.78294">
        <ele>34</ele>
        <time>2017-07-23T07:51:18+02:00</time>
      </trkpt>
      <trkpt lat="41.81189" lon="8.78319">
        <ele>34</ele>
        <time>2017-07-23T07:51:57+02:00</time>
      </trkpt>
      <trkpt lat="41.81165" lon="8.7832">
        <ele>31</ele>
        <time>2017-07-23T07:52:27+02:00</time>
      </trkpt>
      <trkpt lat="41.81159" lon="8.78345">
        <ele>32</ele>
        <time>2017-07-23T07:53:13+02:00</time>
      </trkpt>
      <trkpt lat="41.81155" lon="8.78361">
        <ele>33</ele>
        <time>2021-07-05T18:45:03+02:00</time>
      </trkpt>
      <trkpt lat="41.81131" lon="8.78366">
        <ele>33</ele>
        <time>2017-07-23T07:54:33+02:00</time>
      </trkpt>
      <trkpt lat="41.8112" lon="8.78374">
        <ele>33</ele>
        <time>2021-07-05T18:45:13+02:00</time>
      </trkpt>
      <trkpt lat="41.81105" lon="8.78363">
        <ele>33</ele>
        <time>2017-07-23T07:55:26+02:00</time>
      </trkpt>
      <trkpt lat="41.81087" lon="8.78387">
        <ele>33</ele>
        <time>2017-07-23T07:59:50+02:00</time>
      </trkpt>
      <trkpt lat="41.81077" lon="8.78396">
        <ele>35</ele>
        <time>2021-07-05T18:45:28+02:00</time>
      </trkpt>
      <trkpt lat="41.81068" lon="8.78373">
        <ele>36</ele>
        <time>2017-07-23T08:01:30+02:00</time>
      </trkpt>
      <trkpt lat="41.81051" lon="8.7837">
        <ele>41</ele>
        <time>2021-07-05T18:45:38+02:00</time>
      </trkpt>
      <trkpt lat="41.81044" lon="8.78361">
        <ele>42</ele>
        <time>2017-07-23T08:01:59+02:00</time>
      </trkpt>
      <trkpt lat="41.81027" lon="8.78341">
        <ele>46</ele>
        <time>2017-07-23T08:02:52+02:00</time>
      </trkpt>
      <trkpt lat="41.81006" lon="8.78325">
        <ele>50</ele>
        <time>2017-07-23T08:03:12+02:00</time>
      </trkpt>
      <trkpt lat="41.80998" lon="8.78296">
        <ele>49</ele>
        <time>2017-07-23T08:03:42+02:00</time>
      </trkpt>
      <trkpt lat="41.81" lon="8.78265">
        <ele>45</ele>
        <time>2017-07-23T08:04:11+02:00</time>
      </trkpt>
      <trkpt lat="41.81005" lon="8.78235">
        <ele>41</ele>
        <time>2017-07-23T08:04:31+02:00</time>
      </trkpt>
      <trkpt lat="41.81002" lon="8.78204">
        <ele>39</ele>
        <time>2017-07-23T08:05:06+02:00</time>
      </trkpt>
      <trkpt lat="41.80992" lon="8.78197">
        <ele>39</ele>
        <time>2021-07-05T18:46:18+02:00</time>
      </trkpt>
      <trkpt lat="41.80979" lon="8.78197">
        <ele>40</ele>
        <time>2017-07-23T08:06:39+02:00</time>
      </trkpt>
      <trkpt lat="41.80971" lon="8.78208">
        <ele>42</ele>
        <time>2021-07-05T18:46:28+02:00</time>
      </trkpt>
      <trkpt lat="41.80957" lon="8.78204">
        <ele>42</ele>
        <time>2017-07-23T08:07:04+02:00</time>
      </trkpt>
      <trkpt lat="41.80943" lon="8.78179">
        <ele>40</ele>
        <time>2017-07-23T08:07:30+02:00</time>
      </trkpt>
      <trkpt lat="41.80921" lon="8.78187">
        <ele>43</ele>
        <time>2017-07-23T08:08:27+02:00</time>
      </trkpt>
      <trkpt lat="41.80907" lon="8.78204">
        <ele>46</ele>
        <time>2017-07-23T08:08:45+02:00</time>
      </trkpt>
      <trkpt lat="41.80891" lon="8.78223">
        <ele>49</ele>
        <time>2017-07-23T08:09:11+02:00</time>
      </trkpt>
      <trkpt lat="41.80873" lon="8.78235">
        <ele>52</ele>
        <time>2021-07-05T18:46:58+02:00</time>
      </trkpt>
      <trkpt lat="41.80861" lon="8.78219">
        <ele>50</ele>
        <time>2017-07-23T08:10:14+02:00</time>
      </trkpt>
      <trkpt lat="41.80849" lon="8.7819">
        <ele>46</ele>
        <time>2017-07-23T08:10:45+02:00</time>
      </trkpt>
      <trkpt lat="41.80833" lon="8.78165">
        <ele>43</ele>
        <time>2017-07-23T08:11:02+02:00</time>
      </trkpt>
      <trkpt lat="41.80811" lon="8.78149">
        <ele>42</ele>
        <time>2017-07-23T08:11:34+02:00</time>
      </trkpt>
      <trkpt lat="41.80798" lon="8.7815">
        <ele>42</ele>
        <time>2021-07-05T18:47:23+02:00</time>
      </trkpt>
      <trkpt lat="41.80794" lon="8.78129">
        <ele>40</ele>
        <time>2017-07-23T08:12:02+02:00</time>
      </trkpt>
      <trkpt lat="41.80787" lon="8.78106">
        <ele>37</ele>
        <time>2021-07-05T18:47:33+02:00</time>
      </trkpt>
      <trkpt lat="41.80776" lon="8.78097">
        <ele>36</ele>
        <time>2017-07-23T08:12:45+02:00</time>
      </trkpt>
      <trkpt lat="41.80755" lon="8.78103">
        <ele>38</ele>
        <time>2017-07-23T08:13:09+02:00</time>
      </trkpt>
      <trkpt lat="41.80741" lon="8.78131">
        <ele>42</ele>
        <time>2017-07-23T08:13:48+02:00</time>
      </trkpt>
      <trkpt lat="41.80725" lon="8.78153">
        <ele>43</ele>
        <time>2017-07-23T08:14:12+02:00</time>
      </trkpt>
      <trkpt lat="41.80706" lon="8.7817">
        <ele>44</ele>
        <time>2017-07-23T08:14:33+02:00</time>
      </trkpt>
      <trkpt lat="41.80697" lon="8.78199">
        <ele>47</ele>
        <time>2017-07-23T08:15:05+02:00</time>
      </trkpt>
      <trkpt lat="41.80678" lon="8.78217">
        <ele>47</ele>
        <time>2017-07-23T08:15:36+02:00</time>
      </trkpt>
      <trkpt lat="41.80655" lon="8.78217">
        <ele>46</ele>
        <time>2017-07-23T08:16:03+02:00</time>
      </trkpt>
      <trkpt lat="41.80634" lon="8.78224">
        <ele>47</ele>
        <time>2017-07-23T08:16:34+02:00</time>
      </trkpt>
      <trkpt lat="41.80611" lon="8.78233">
        <ele>47</ele>
        <time>2017-07-23T08:17:06+02:00</time>
      </trkpt>
      <trkpt lat="41.80592" lon="8.7825">
        <ele>47</ele>
        <time>2017-07-23T08:17:30+02:00</time>
      </trkpt>
      <trkpt lat="41.80571" lon="8.78265">
        <ele>50</ele>
        <time>2017-07-23T08:18:02+02:00</time>
      </trkpt>
      <trkpt lat="41.80551" lon="8.7828">
        <ele>53</ele>
        <time>2017-07-23T08:18:28+02:00</time>
      </trkpt>
      <trkpt lat="41.80536" lon="8.78278">
        <ele>54</ele>
        <time>2021-07-05T18:48:43+02:00</time>
      </trkpt>
      <trkpt lat="41.80535" lon="8.78258">
        <ele>52</ele>
        <time>2017-07-23T08:19:00+02:00</time>
      </trkpt>
      <trkpt lat="41.80552" lon="8.78236">
        <ele>50</ele>
        <time>2017-07-23T08:19:49+02:00</time>
      </trkpt>
      <trkpt lat="41.80566" lon="8.78213">
        <ele>50</ele>
        <time>2017-07-23T08:20:15+02:00</time>
      </trkpt>
      <trkpt lat="41.80581" lon="8.78189">
        <ele>49</ele>
        <time>2017-07-23T08:20:51+02:00</time>
      </trkpt>
      <trkpt lat="41.80597" lon="8.78167">
        <ele>48</ele>
        <time>2017-07-23T08:21:16+02:00</time>
      </trkpt>
      <trkpt lat="41.80612" lon="8.78142">
        <ele>47</ele>
        <time>2017-07-23T08:21:57+02:00</time>
      </trkpt>
      <trkpt lat="41.80622" lon="8.78113">
        <ele>47</ele>
        <time>2017-07-23T08:22:17+02:00</time>
      </trkpt>
      <trkpt lat="41.80635" lon="8.78085">
        <ele>44</ele>
        <time>2017-07-23T08:22:44+02:00</time>
      </trkpt>
      <trkpt lat="41.80641" lon="8.78053">
        <ele>43</ele>
        <time>2017-07-23T08:23:16+02:00</time>
      </trkpt>
      <trkpt lat="41.80641" lon="8.78021">
        <ele>43</ele>
        <time>2017-07-23T08:23:42+02:00</time>
      </trkpt>
      <trkpt lat="41.80657" lon="8.77997">
        <ele>42</ele>
        <time>2017-07-23T08:24:05+02:00</time>
      </trkpt>
      <trkpt lat="41.80675" lon="8.7798">
        <ele>40</ele>
        <time>2017-07-23T08:24:30+02:00</time>
      </trkpt>
      <trkpt lat="41.80688" lon="8.77955">
        <ele>38</ele>
        <time>2017-07-23T08:24:54+02:00</time>
      </trkpt>
      <trkpt lat="41.80704" lon="8.77931">
        <ele>36</ele>
        <time>2017-07-23T08:25:25+02:00</time>
      </trkpt>
      <trkpt lat="41.80716" lon="8.77905">
        <ele>34</ele>
        <time>2017-07-23T08:25:47+02:00</time>
      </trkpt>
      <trkpt lat="41.80723" lon="8.77876">
        <ele>31</ele>
        <time>2017-07-23T08:26:20+02:00</time>
      </trkpt>
      <trkpt lat="41.80704" lon="8.7786">
        <ele>33</ele>
        <time>2017-07-23T08:27:03+02:00</time>
      </trkpt>
      <trkpt lat="41.80686" lon="8.7788">
        <ele>36</ele>
        <time>2017-07-23T08:27:20+02:00</time>
      </trkpt>
      <trkpt lat="41.80666" lon="8.77892">
        <ele>41</ele>
        <time>2017-07-23T08:27:49+02:00</time>
      </trkpt>
      <trkpt lat="41.80646" lon="8.77898">
        <ele>41</ele>
        <time>2017-07-23T08:28:14+02:00</time>
      </trkpt>
      <trkpt lat="41.80623" lon="8.779">
        <ele>40</ele>
        <time>2017-07-23T08:28:38+02:00</time>
      </trkpt>
      <trkpt lat="41.80597" lon="8.77904">
        <ele>40</ele>
        <time>2017-07-23T08:29:07+02:00</time>
      </trkpt>
      <trkpt lat="41.80585" lon="8.77925">
        <ele>42</ele>
        <time>2017-07-23T08:29:31+02:00</time>
      </trkpt>
      <trkpt lat="41.80579" lon="8.77955">
        <ele>45</ele>
        <time>2017-07-23T08:29:59+02:00</time>
      </trkpt>
      <trkpt lat="41.80559" lon="8.7797">
        <ele>48</ele>
        <time>2017-07-23T08:30:22+02:00</time>
      </trkpt>
      <trkpt lat="41.80548" lon="8.77943">
        <ele>48</ele>
        <time>2017-07-23T08:30:50+02:00</time>
      </trkpt>
      <trkpt lat="41.80549" lon="8.77912">
        <ele>45</ele>
        <time>2017-07-23T08:31:15+02:00</time>
      </trkpt>
      <trkpt lat="41.80543" lon="8.77883">
        <ele>42</ele>
        <time>2017-07-23T08:31:39+02:00</time>
      </trkpt>
      <trkpt lat="41.80535" lon="8.77853">
        <ele>40</ele>
        <time>2017-07-23T08:32:12+02:00</time>
      </trkpt>
      <trkpt lat="41.80512" lon="8.77849">
        <ele>42</ele>
        <time>2017-07-23T08:32:33+02:00</time>
      </trkpt>
      <trkpt lat="41.80488" lon="8.77848">
        <ele>45</ele>
        <time>2017-07-23T08:33:00+02:00</time>
      </trkpt>
      <trkpt lat="41.80473" lon="8.77853">
        <ele>48</ele>
        <time>2021-07-05T18:51:23+02:00</time>
      </trkpt>
      <trkpt lat="41.80461" lon="8.77834">
        <ele>48</ele>
        <time>2017-07-23T08:33:38+02:00</time>
      </trkpt>
      <trkpt lat="41.8046" lon="8.77804">
        <ele>48</ele>
        <time>2017-07-23T08:34:06+02:00</time>
      </trkpt>
      <trkpt lat="41.80458" lon="8.77772">
        <ele>49</ele>
        <time>2017-07-23T08:34:33+02:00</time>
      </trkpt>
      <trkpt lat="41.80467" lon="8.7776">
        <ele>47</ele>
        <time>2021-07-05T18:51:43+02:00</time>
      </trkpt>
      <trkpt lat="41.8048" lon="8.77764">
        <ele>45</ele>
        <time>2017-07-23T08:35:04+02:00</time>
      </trkpt>
      <trkpt lat="41.80499" lon="8.77783">
        <ele>42</ele>
        <time>2017-07-23T08:35:28+02:00</time>
      </trkpt>
      <trkpt lat="41.80522" lon="8.77787">
        <ele>39</ele>
        <time>2017-07-23T08:35:50+02:00</time>
      </trkpt>
      <trkpt lat="41.80538" lon="8.77765">
        <ele>37</ele>
        <time>2017-07-23T08:36:17+02:00</time>
      </trkpt>
      <trkpt lat="41.80535" lon="8.77734">
        <ele>37</ele>
        <time>2017-07-23T08:36:42+02:00</time>
      </trkpt>
      <trkpt lat="41.80534" lon="8.77704">
        <ele>38</ele>
        <time>2017-07-23T08:37:10+02:00</time>
      </trkpt>
      <trkpt lat="41.80519" lon="8.77684">
        <ele>40</ele>
        <time>2017-07-23T08:37:39+02:00</time>
      </trkpt>
      <trkpt lat="41.80501" lon="8.77667">
        <ele>43</ele>
        <time>2017-07-23T08:38:02+02:00</time>
      </trkpt>
      <trkpt lat="41.8048" lon="8.77643">
        <ele>47</ele>
        <time>2017-07-23T08:38:44+02:00</time>
      </trkpt>
      <trkpt lat="41.80477" lon="8.77619">
        <ele>48</ele>
        <time>2021-07-05T18:52:33+02:00</time>
      </trkpt>
      <trkpt lat="41.80496" lon="8.77609">
        <ele>44</ele>
        <time>2017-07-23T08:39:06+02:00</time>
      </trkpt>
      <trkpt lat="41.8052" lon="8.77613">
        <ele>41</ele>
        <time>2017-07-23T08:39:38+02:00</time>
      </trkpt>
      <trkpt lat="41.80532" lon="8.77592">
        <ele>40</ele>
        <time>2017-07-23T08:39:55+02:00</time>
      </trkpt>
      <trkpt lat="41.80538" lon="8.77565">
        <ele>39</ele>
        <time>2017-07-23T08:40:17+02:00</time>
      </trkpt>
      <trkpt lat="41.80546" lon="8.77536">
        <ele>37</ele>
        <time>2017-07-23T08:40:46+02:00</time>
      </trkpt>
      <trkpt lat="41.80544" lon="8.77511">
        <ele>37</ele>
        <time>2017-07-23T08:41:37+02:00</time>
      </trkpt>
      <trkpt lat="41.80524" lon="8.77498">
        <ele>38</ele>
        <time>2017-07-23T08:41:57+02:00</time>
      </trkpt>
      <trkpt lat="41.80498" lon="8.77504">
        <ele>41</ele>
        <time>2017-07-23T08:42:20+02:00</time>
      </trkpt>
      <trkpt lat="41.8048" lon="8.77487">
        <ele>44</ele>
        <time>2017-07-23T08:42:54+02:00</time>
      </trkpt>
      <trkpt lat="41.80474" lon="8.77464">
        <ele>44</ele>
        <time>2021-07-05T18:53:23+02:00</time>
      </trkpt>
      <trkpt lat="41.80477" lon="8.77447">
        <ele>43</ele>
        <time>2017-07-23T08:43:20+02:00</time>
      </trkpt>
      <trkpt lat="41.80488" lon="8.7742">
        <ele>40</ele>
        <time>2017-07-23T08:43:42+02:00</time>
      </trkpt>
      <trkpt lat="41.80492" lon="8.7739">
        <ele>39</ele>
        <time>2017-07-23T08:44:14+02:00</time>
      </trkpt>
      <trkpt lat="41.80479" lon="8.77371">
        <ele>40</ele>
        <time>2017-07-23T08:44:35+02:00</time>
      </trkpt>
      <trkpt lat="41.80456" lon="8.77356">
        <ele>42</ele>
        <time>2017-07-23T08:44:54+02:00</time>
      </trkpt>
      <trkpt lat="41.8044" lon="8.7734">
        <ele>43</ele>
        <time>2017-07-23T08:45:20+02:00</time>
      </trkpt>
      <trkpt lat="41.80446" lon="8.77314">
        <ele>42</ele>
        <time>2017-07-23T08:45:44+02:00</time>
      </trkpt>
      <trkpt lat="41.80466" lon="8.77301">
        <ele>40</ele>
        <time>2017-07-23T08:46:22+02:00</time>
      </trkpt>
      <trkpt lat="41.80474" lon="8.77291">
        <ele>40</ele>
        <time>2021-07-05T18:54:08+02:00</time>
      </trkpt>
      <trkpt lat="41.80484" lon="8.77292">
        <ele>39</ele>
        <time>2017-07-23T08:47:40+02:00</time>
      </trkpt>
      <trkpt lat="41.80508" lon="8.77287">
        <ele>38</ele>
        <time>2017-07-23T08:48:05+02:00</time>
      </trkpt>
      <trkpt lat="41.8053" lon="8.77277">
        <ele>37</ele>
        <time>2017-07-23T08:48:37+02:00</time>
      </trkpt>
      <trkpt lat="41.8055" lon="8.77263">
        <ele>37</ele>
        <time>2017-07-23T08:49:01+02:00</time>
      </trkpt>
      <trkpt lat="41.80572" lon="8.77249">
        <ele>36</ele>
        <time>2017-07-23T08:49:21+02:00</time>
      </trkpt>
      <trkpt lat="41.80594" lon="8.77234">
        <ele>37</ele>
        <time>2017-07-23T08:49:59+02:00</time>
      </trkpt>
      <trkpt lat="41.80614" lon="8.77249">
        <ele>35</ele>
        <time>2017-07-23T08:50:19+02:00</time>
      </trkpt>
      <trkpt lat="41.80626" lon="8.77273">
        <ele>33</ele>
        <time>2017-07-23T08:50:38+02:00</time>
      </trkpt>
      <trkpt lat="41.80648" lon="8.7727">
        <ele>32</ele>
        <time>2017-07-23T08:51:10+02:00</time>
      </trkpt>
      <trkpt lat="41.8067" lon="8.77255">
        <ele>33</ele>
        <time>2017-07-23T08:51:55+02:00</time>
      </trkpt>
      <trkpt lat="41.80693" lon="8.77265">
        <ele>30</ele>
        <time>2017-07-23T08:52:32+02:00</time>
      </trkpt>
      <trkpt lat="41.80708" lon="8.77268">
        <ele>29</ele>
        <time>2021-07-05T18:55:08+02:00</time>
      </trkpt>
      <trkpt lat="41.80716" lon="8.77258">
        <ele>29</ele>
        <time>2017-07-23T08:52:45+02:00</time>
      </trkpt>
      <trkpt lat="41.80734" lon="8.77237">
        <ele>29</ele>
        <time>2017-07-23T08:53:01+02:00</time>
      </trkpt>
      <trkpt lat="41.80755" lon="8.77224">
        <ele>29</ele>
        <time>2017-07-23T08:53:44+02:00</time>
      </trkpt>
      <trkpt lat="41.80777" lon="8.77232">
        <ele>26</ele>
        <time>2017-07-23T08:54:08+02:00</time>
      </trkpt>
      <trkpt lat="41.80786" lon="8.77246">
        <ele>25</ele>
        <time>2021-07-05T18:55:33+02:00</time>
      </trkpt>
      <trkpt lat="41.80786" lon="8.77263">
        <ele>24</ele>
        <time>2017-07-23T08:54:48+02:00</time>
      </trkpt>
      <trkpt lat="41.80782" lon="8.77295">
        <ele>23</ele>
        <time>2017-07-23T08:55:24+02:00</time>
      </trkpt>
      <trkpt lat="41.80777" lon="8.77329">
        <ele>22</ele>
        <time>2017-07-23T08:55:43+02:00</time>
      </trkpt>
      <trkpt lat="41.80785" lon="8.77357">
        <ele>21</ele>
        <time>2017-07-23T08:56:08+02:00</time>
      </trkpt>
      <trkpt lat="41.80802" lon="8.77378">
        <ele>20</ele>
        <time>2017-07-23T08:56:26+02:00</time>
      </trkpt>
      <trkpt lat="41.80823" lon="8.77393">
        <ele>18</ele>
        <time>2017-07-23T08:57:00+02:00</time>
      </trkpt>
      <trkpt lat="41.80846" lon="8.77388">
        <ele>16</ele>
        <time>2017-07-23T08:57:24+02:00</time>
      </trkpt>
      <trkpt lat="41.80869" lon="8.77382">
        <ele>15</ele>
        <time>2017-07-23T08:57:48+02:00</time>
      </trkpt>
      <trkpt lat="41.80892" lon="8.77373">
        <ele>14</ele>
        <time>2017-07-23T08:58:08+02:00</time>
      </trkpt>
      <trkpt lat="41.80915" lon="8.77367">
        <ele>13</ele>
        <time>2017-07-23T08:58:41+02:00</time>
      </trkpt>
      <trkpt lat="41.80936" lon="8.77355">
        <ele>12</ele>
        <time>2017-07-23T08:59:10+02:00</time>
      </trkpt>
      <trkpt lat="41.80958" lon="8.77348">
        <ele>11</ele>
        <time>2017-07-23T08:59:35+02:00</time>
      </trkpt>
      <trkpt lat="41.8098" lon="8.77338">
        <ele>10</ele>
        <time>2017-07-23T09:00:09+02:00</time>
      </trkpt>
      <trkpt lat="41.80996" lon="8.77336">
        <ele>9</ele>
        <time>2021-07-05T18:56:43+02:00</time>
      </trkpt>
      <trkpt lat="41.81011" lon="8.77329">
        <ele>8</ele>
        <time>2021-07-05T18:56:48+02:00</time>
      </trkpt>
      <trkpt lat="41.81027" lon="8.7732">
        <ele>7</ele>
        <time>2021-07-05T18:56:53+02:00</time>
      </trkpt>
      <trkpt lat="41.81037" lon="8.77317">
        <ele>6</ele>
        <time>2021-07-05T18:56:58+02:00</time>
      </trkpt>
      <trkpt lat="41.81047" lon="8.77314">
        <ele>6</ele>
        <time>2021-07-05T18:57:03+02:00</time>
      </trkpt>
      <trkpt lat="41.81051" lon="8.77338">
        <ele>5</ele>
        <time>2021-07-05T18:57:08+02:00</time>
      </trkpt>
      <trkpt lat="41.81055" lon="8.77365">
        <ele>5</ele>
        <time>2021-07-05T18:57:13+02:00</time>
      </trkpt>
      <trkpt lat="41.8106" lon="8.77391">
        <ele>4</ele>
        <time>2021-07-05T18:57:18+02:00</time>
      </trkpt>
      <trkpt lat="41.81065" lon="8.77418">
        <ele>3</ele>
        <time>2021-07-05T18:57:23+02:00</time>
      </trkpt>
      <trkpt lat="41.81073" lon="8.77444">
        <ele>2</ele>
        <time>2021-07-05T18:57:28+02:00</time>
      </trkpt>
      <trkpt lat="41.81079" lon="8.77469">
        <ele>2</ele>
        <time>2021-07-05T18:57:33+02:00</time>
      </trkpt>
      <trkpt lat="41.8109" lon="8.77499">
        <ele>1</ele>
        <time>2021-07-05T18:57:38+02:00</time>
      </trkpt>
      <trkpt lat="41.81099" lon="8.77511">
        <ele>2</ele>
        <time>2021-07-05T18:57:43+02:00</time>
      </trkpt>
      <trkpt lat="41.81109" lon="8.77522">
        <ele>2</ele>
        <time>2017-07-23T09:00:28+02:00</time>
      </trkpt>
    </trkseg>
  </trk>
</gpx>